Accueil
METAR-TAF:

METAR-TAF

Aéroports :

Hua Hin, Thaïlande

latitude: 12-35N, longitude: 099-57E, altitude: 5 m

Observation

Le bulletin a été fait il y a 9 heures et 36 minutes, à 11:00 UTC
Vent 4 kt de ouest/sud-ouest, variant entre sud-est et ouest/nord-ouest
Température 27°C
Humidité 84%
Pression 1004 hPa
Visibilité 10 km ou plus
Nuages épars à une hauteur de 3000 ft

METAR: VTPH 241100Z 24004KT 130V300 9999 SCT030 27/24 Q1004 NOSIG

Heure: 03:36 (20:36 UTC)

Prévision

Le bulletin a été fait il y a 3 heures et 36 minutes, à 17:00 UTC
Prévision valable du 24 à 18 UTC au 25 à 18 UTC
Vent 3 kt de ouest/sud-ouest
Visibilité 10 km ou plus
Nuages épars à une hauteur de 3000 ft
Temporairement
du 24 à 22 UTC au 25 à 02 UTC
Visibilité: 4000 m
pluie
Temporairement
du 25 à 06 UTC au 25 à 12 UTC
Visibilité: 3000 m
pluie,

TAF: VTPH 241700Z 2418/2518 24003KT 9999 SCT030 TEMPO 2422/2502 4000 RA TEMPO 2506/2512 3000 RA

Observations et prévisions météorologiques de plus de 4000 aéroports (messages METAR et TAF).

Les stations disponibles sont représentées par des disques jaunes et rouges sur la carte.

Passer la souris dessus pour voir le nom de la station.

Cliquer dessus pour voir les observations et prévisions météorologiques.

Pour changer de carte: cliquez sur les boutons verts avec une croix noire pour zoomer, sur le bouton vert avec un tiret pour effectuer un zoom arrière, ou sur les flèches vertes pour les cartes adjacentes.


METAR-TAF: